Terminal Aerodrome Forecast
Issued by NWS Sioux Falls, SD

Home | Current Version | Previous Version | Text Only | Print | Product List | Glossary On
Versions: 1 2 3 4 5 6 7 8 9 10 11 12
604
FTUS43 KFSD 190542
TAFHON
TAF
KHON 190542Z 1906/2006 15008KT P6SM FEW250
     FM191600 16008KT P6SM SCT035
     FM191800 16008KT P6SM BKN025
     FM192100 16009KT P6SM SCT040
     FM200200 15009KT P6SM BKN030=

USA.gov is the U.S. government's official web portal to all federal, state and local government web resources and services.